Time;durP1;ratioP1;P1;durP2;ratioP2;P2;SDS_P1;SDS_P2;PMS_P1;PMS_P2;Temp;Humidity;BMP_temperature;BMP_pressure;BME280_temperature;BME280_humidity;BME280_pressure;Samples;Min_cycle;Max_cycle;Signal;HPM_P1;HPM_P2
2022/08/09 00:00:06;;;;;;;0.60;0.60;;;19.30;99.90;;;;;;5114875;28;20175;-59
2022/08/09 00:02:32;;;;;;;0.50;0.50;;;19.20;99.90;;;;;;5114914;28;20170;-57
2022/08/09 00:04:58;;;;;;;0.52;0.52;;;19.20;99.90;;;;;;5114881;28;20230;-58
2022/08/09 00:07:24;;;;;;;0.50;0.50;;;19.30;99.90;;;;;;5114768;28;20630;-58
2022/08/09 00:09:49;;;;;;;0.43;0.43;;;19.20;99.90;;;;;;5114787;28;20670;-59
2022/08/09 00:12:15;;;;;;;0.50;0.50;;;19.30;99.90;;;;;;5114590;28;20233;-59
2022/08/09 00:14:40;;;;;;;0.80;0.77;;;19.20;99.90;;;;;;5113411;28;20231;-58
2022/08/09 00:17:06;;;;;;;0.68;0.68;;;19.20;99.90;;;;;;5114755;28;20635;-59
2022/08/09 00:19:32;;;;;;;0.50;0.50;;;19.30;99.90;;;;;;5114629;28;20252;-57
2022/08/09 00:21:58;;;;;;;0.50;0.50;;;19.20;99.90;;;;;;5114517;28;20180;-58
2022/08/09 00:24:25;;;;;;;0.60;0.60;;;19.30;99.90;;;;;;5113992;28;20181;-58
2022/08/09 00:26:51;;;;;;;0.70;0.70;;;19.20;99.90;;;;;;5114226;28;20535;-59
2022/08/09 00:29:16;;;;;;;0.60;0.60;;;19.10;99.90;;;;;;5113149;28;20180;-58
2022/08/09 00:31:42;;;;;;;0.70;0.60;;;19.20;99.90;;;;;;5114273;28;20166;-59
2022/08/09 00:34:08;;;;;;;1.23;0.50;;;19.10;99.90;;;;;;5114154;28;20288;-57
2022/08/09 00:36:34;;;;;;;0.95;0.70;;;19.10;99.90;;;;;;5114285;28;20212;-58
2022/08/09 00:39:01;;;;;;;0.80;0.80;;;18.90;99.90;;;;;;5114190;28;20576;-58
2022/08/09 00:41:26;;;;;;;0.60;0.60;;;19.00;99.90;;;;;;5114060;28;20703;-58
2022/08/09 00:43:52;;;;;;;0.50;0.50;;;19.00;99.90;;;;;;5114228;28;20177;-59
2022/08/09 00:46:18;;;;;;;0.60;0.60;;;18.90;99.90;;;;;;5114247;28;20222;-58
2022/08/09 00:48:45;;;;;;;0.50;0.50;;;19.00;99.90;;;;;;5114131;28;20721;-59
2022/08/09 00:51:11;;;;;;;1.33;0.60;;;18.90;99.90;;;;;;5112841;28;20259;-59
2022/08/09 00:53:38;;;;;;;1.45;0.70;;;18.90;99.90;;;;;;5113819;28;20197;-58
2022/08/09 00:56:05;;;;;;;0.85;0.85;;;18.90;99.90;;;;;;5113801;28;20282;-59
2022/08/09 00:58:30;;;;;;;0.70;0.50;;;18.90;99.90;;;;;;5114033;28;20173;-59
2022/08/09 01:00:57;;;;;;;0.80;0.60;;;18.90;99.90;;;;;;5112626;28;20186;-58
2022/08/09 01:03:38;;;;;;;0.65;0.65;;;18.80;99.90;;;;;;5113898;28;20635;-58
2022/08/09 01:06:08;;;;;;;0.68;0.68;;;18.80;99.90;;;;;;5113851;28;20169;-59
2022/08/09 01:08:46;;;;;;;0.55;0.55;;;18.80;99.90;;;;;;5113768;28;20538;-58
2022/08/09 01:11:47;;;;;;;0.75;0.68;;;18.80;99.90;;;;;;5113942;28;20165;-58
2022/08/09 01:14:43;;;;;;;0.55;0.55;;;18.70;99.90;;;;;;5089498;28;20256;-59
2022/08/09 01:17:18;;;;;;;0.60;0.60;;;18.60;99.90;;;;;;5089487;28;20200;-59
2022/08/09 01:20:13;;;;;;;1.00;0.75;;;18.60;99.90;;;;;;5113870;28;20503;-59
2022/08/09 01:22:43;;;;;;;0.80;0.70;;;18.50;99.90;;;;;;5113731;28;20185;-58
2022/08/09 01:25:21;;;;;;;1.05;0.85;;;18.50;99.90;;;;;;5113555;28;20541;-58
2022/08/09 01:27:53;;;;;;;0.55;0.55;;;18.50;99.90;;;;;;5113883;28;20173;-58
2022/08/09 01:30:21;;;;;;;1.33;0.70;;;18.40;99.90;;;;;;5113775;28;20165;-59
2022/08/09 01:32:49;;;;;;;0.60;0.60;;;18.50;99.90;;;;;;5113646;28;20174;-59
2022/08/09 01:35:20;;;;;;;0.70;0.70;;;18.40;99.90;;;;;;5115226;28;20181;-59
2022/08/09 01:37:47;;;;;;;0.80;0.80;;;18.30;99.90;;;;;;5117643;28;20169;-58
2022/08/09 01:40:15;;;;;;;0.73;0.70;;;18.40;99.90;;;;;;5117825;28;20188;-58
2022/08/09 01:42:42;;;;;;;0.73;0.73;;;18.40;99.90;;;;;;5117640;28;20222;-59
2022/08/09 01:45:09;;;;;;;1.05;1.00;;;18.30;99.90;;;;;;5117641;28;20177;-59
2022/08/09 01:47:36;;;;;;;0.55;0.55;;;18.30;99.90;;;;;;5115833;28;20673;-58
2022/08/09 01:50:03;;;;;;;0.85;0.82;;;18.30;99.90;;;;;;5117264;28;20173;-58
2022/08/09 01:52:29;;;;;;;0.65;0.60;;;18.30;99.90;;;;;;5117602;28;20635;-58
2022/08/09 01:54:57;;;;;;;1.08;0.90;;;18.40;99.90;;;;;;5116157;28;20201;-59
2022/08/09 01:57:27;;;;;;;0.70;0.70;;;18.40;99.90;;;;;;5117464;28;20201;-59
2022/08/09 01:59:57;;;;;;;0.98;0.80;;;18.30;99.90;;;;;;5116101;28;20709;-59
2022/08/09 02:02:27;;;;;;;0.73;0.73;;;18.30;99.90;;;;;;5117135;28;20172;-58
2022/08/09 02:04:55;;;;;;;0.75;0.75;;;18.20;99.90;;;;;;5117087;28;20681;-58
2022/08/09 02:07:25;;;;;;;0.70;0.70;;;18.20;99.90;;;;;;5117156;28;20673;-58
2022/08/09 02:10:10;;;;;;;0.60;0.60;;;18.20;99.90;;;;;;5117132;28;20223;-59
2022/08/09 02:12:37;;;;;;;0.90;0.73;;;18.20;99.90;;;;;;5115638;28;20526;-58
2022/08/09 02:15:05;;;;;;;0.73;0.73;;;18.30;99.90;;;;;;5116995;28;20229;-58
2022/08/09 02:17:32;;;;;;;0.70;0.70;;;18.20;99.90;;;;;;5117134;28;20209;-59
2022/08/09 02:19:58;;;;;;;0.77;0.75;;;18.20;99.90;;;;;;5115712;28;20630;-58
2022/08/09 02:22:31;;;;;;;0.93;0.90;;;18.30;99.90;;;;;;5116780;28;20566;-58
2022/08/09 02:25:00;;;;;;;0.93;0.88;;;18.20;99.90;;;;;;5117061;28;20169;-58
2022/08/09 02:27:29;;;;;;;0.82;0.82;;;18.10;99.90;;;;;;5116785;28;20211;-58
2022/08/09 02:29:57;;;;;;;0.88;0.88;;;18.20;99.90;;;;;;5116892;28;20570;-59
2022/08/09 02:32:25;;;;;;;1.10;1.00;;;18.30;99.90;;;;;;5116847;28;20193;-58
2022/08/09 02:34:56;;;;;;;0.73;0.73;;;18.20;99.90;;;;;;5116637;28;20209;-59
2022/08/09 02:37:25;;;;;;;0.90;0.70;;;18.20;99.90;;;;;;5116718;28;20169;-58
2022/08/09 02:39:59;;;;;;;0.70;0.70;;;18.20;99.90;;;;;;5116490;28;20169;-58
2022/08/09 02:42:32;;;;;;;0.90;0.90;;;18.10;99.90;;;;;;5116422;28;20170;-59
2022/08/09 02:45:12;;;;;;;0.73;0.73;;;18.10;99.90;;;;;;5116372;28;20612;-58
2022/08/09 02:47:40;;;;;;;0.85;0.85;;;18.10;99.90;;;;;;5116245;28;20218;-58
2022/08/09 02:50:35;;;;;;;0.85;0.82;;;18.10;99.90;;;;;;5116278;28;20180;-58
2022/08/09 02:53:06;;;;;;;0.60;0.60;;;18.00;99.90;;;;;;5110052;28;20185;-58
2022/08/09 02:55:34;;;;;;;0.93;0.85;;;18.00;99.90;;;;;;5116335;28;20525;-57
2022/08/09 02:58:01;;;;;;;1.33;0.90;;;18.00;99.90;;;;;;5116278;28;20564;-58
2022/08/09 03:00:28;;;;;;;1.20;0.73;;;18.00;99.90;;;;;;5116030;28;20531;-59
2022/08/09 03:02:56;;;;;;;1.15;0.80;;;17.90;99.90;;;;;;5114717;28;20180;-59
2022/08/09 03:05:23;;;;;;;0.80;0.80;;;17.90;99.90;;;;;;5116185;28;20253;-58
2022/08/09 03:07:50;;;;;;;1.00;0.82;;;17.80;99.90;;;;;;5116429;28;20173;-58
2022/08/09 03:10:16;;;;;;;0.93;0.85;;;18.00;99.90;;;;;;5116022;28;20184;-59
2022/08/09 03:12:43;;;;;;;1.15;0.77;;;17.90;99.90;;;;;;5115818;28;20183;-59
2022/08/09 03:15:11;;;;;;;0.73;0.65;;;18.00;99.90;;;;;;5115953;28;20559;-59
2022/08/09 03:17:37;;;;;;;0.60;0.60;;;18.00;99.90;;;;;;5115821;28;20630;-59
2022/08/09 03:20:06;;;;;;;0.80;0.80;;;18.00;99.90;;;;;;5115274;28;20173;-59
2022/08/09 03:22:36;;;;;;;0.68;0.68;;;18.00;99.90;;;;;;5115746;28;20170;-58
2022/08/09 03:25:02;;;;;;;0.60;0.60;;;18.00;99.90;;;;;;5115970;28;20184;-58
2022/08/09 03:27:29;;;;;;;1.20;1.10;;;17.90;99.90;;;;;;5115617;28;20523;-59
2022/08/09 03:29:56;;;;;;;1.00;0.85;;;18.00;99.90;;;;;;5114640;28;20170;-59
2022/08/09 03:32:23;;;;;;;1.10;1.00;;;17.80;99.90;;;;;;5115455;28;20256;-59
2022/08/09 03:34:49;;;;;;;1.10;1.00;;;17.80;99.90;;;;;;5115603;28;20201;-59
2022/08/09 03:37:15;;;;;;;1.13;1.02;;;17.80;99.90;;;;;;5114396;28;20235;-59
2022/08/09 03:39:40;;;;;;;0.80;0.80;;;17.70;99.90;;;;;;5115553;28;20197;-59
2022/08/09 03:42:06;;;;;;;0.82;0.65;;;17.70;99.90;;;;;;5114019;28;20226;-59
2022/08/09 03:44:32;;;;;;;0.75;0.73;;;17.70;99.90;;;;;;5115145;28;20645;-57
2022/08/09 03:46:57;;;;;;;0.85;0.85;;;17.60;99.90;;;;;;5115110;28;20180;-58
2022/08/09 03:49:26;;;;;;;1.55;1.15;;;17.50;99.90;;;;;;5113943;28;20173;-58
2022/08/09 03:51:56;;;;;;;1.10;1.00;;;17.50;99.90;;;;;;5115227;28;20660;-58
2022/08/09 03:54:25;;;;;;;1.15;1.05;;;17.50;99.90;;;;;;5115321;28;20225;-58
2022/08/09 03:56:52;;;;;;;1.20;1.10;;;17.50;99.90;;;;;;5113657;28;20220;-59
2022/08/09 03:59:18;;;;;;;1.00;0.90;;;17.50;99.90;;;;;;5114235;28;20599;-59
2022/08/09 04:01:44;;;;;;;1.20;1.10;;;17.60;99.90;;;;;;5113887;28;20256;-59
2022/08/09 04:04:11;;;;;;;0.82;0.82;;;17.60;99.90;;;;;;5113796;28;20516;-58
2022/08/09 04:06:38;;;;;;;1.20;1.10;;;17.50;99.90;;;;;;5114952;28;20173;-58
2022/08/09 04:09:05;;;;;;;1.05;0.95;;;17.60;99.90;;;;;;5114806;28;20268;-58
2022/08/09 04:11:58;;;;;;;1.10;0.90;;;17.50;99.90;;;;;;5114760;28;20178;-59
2022/08/09 04:14:24;;;;;;;0.85;0.85;;;17.50;99.90;;;;;;5114642;28;20247;-58
2022/08/09 04:16:49;;;;;;;1.30;1.10;;;17.40;99.90;;;;;;5114716;28;20205;-59
2022/08/09 04:19:15;;;;;;;2.03;1.20;;;17.40;99.90;;;;;;5114821;28;20173;-59
2022/08/09 04:21:41;;;;;;;1.08;1.00;;;17.40;99.90;;;;;;5114604;28;20184;-58
2022/08/09 04:24:07;;;;;;;1.30;1.20;;;17.30;99.90;;;;;;5113116;28;20196;-59
2022/08/09 04:26:33;;;;;;;1.45;1.30;;;17.30;99.90;;;;;;5114650;28;20181;-58
2022/08/09 04:28:58;;;;;;;1.10;1.00;;;17.20;99.90;;;;;;5114400;28;20165;-59
2022/08/09 04:31:25;;;;;;;1.48;1.38;;;17.30;99.90;;;;;;5114541;28;20174;-59
2022/08/09 04:33:51;;;;;;;1.65;1.40;;;17.30;99.90;;;;;;5113137;28;20196;-59
2022/08/09 04:36:17;;;;;;;1.65;1.30;;;17.20;99.90;;;;;;5114240;28;20169;-59
2022/08/09 04:38:43;;;;;;;1.35;1.25;;;17.20;99.90;;;;;;5114162;28;20173;-59
2022/08/09 04:41:08;;;;;;;1.55;1.10;;;17.30;99.90;;;;;;5113204;28;20169;-58
2022/08/09 04:43:34;;;;;;;1.92;1.20;;;17.20;99.90;;;;;;5114207;28;20184;-59
2022/08/09 04:46:00;;;;;;;1.02;0.93;;;17.20;99.90;;;;;;5113286;28;20177;-58
2022/08/09 04:48:26;;;;;;;1.20;1.05;;;17.20;99.90;;;;;;5114144;28;20181;-58
2022/08/09 04:50:52;;;;;;;1.00;0.90;;;17.30;99.90;;;;;;5114105;28;20196;-58
2022/08/09 04:53:17;;;;;;;1.10;1.00;;;17.40;99.90;;;;;;5113803;28;20558;-58
2022/08/09 04:55:43;;;;;;;1.92;1.40;;;17.30;99.90;;;;;;5113411;28;20186;-60
2022/08/09 04:58:09;;;;;;;1.33;1.23;;;17.40;99.90;;;;;;5114098;28;20174;-58
2022/08/09 05:00:35;;;;;;;1.77;1.33;;;17.30;99.90;;;;;;5112846;28;20173;-58
2022/08/09 05:03:02;;;;;;;1.15;0.93;;;17.40;99.90;;;;;;5113703;28;20166;-57
2022/08/09 05:05:28;;;;;;;1.20;1.02;;;17.50;99.90;;;;;;5112726;28;20260;-58
2022/08/09 05:07:54;;;;;;;1.40;1.27;;;17.30;99.90;;;;;;5112288;28;20314;-58
2022/08/09 05:10:20;;;;;;;1.27;1.17;;;17.40;99.90;;;;;;5113538;28;20665;-57
2022/08/09 05:12:46;;;;;;;1.52;1.10;;;17.50;99.90;;;;;;5112512;28;20170;-58
2022/08/09 05:15:11;;;;;;;1.38;1.00;;;17.50;99.90;;;;;;5113920;28;20703;-58
2022/08/09 05:17:37;;;;;;;1.58;1.10;;;17.70;99.90;;;;;;5113716;28;20181;-58
2022/08/09 05:20:03;;;;;;;1.40;1.13;;;17.70;99.90;;;;;;5113627;28;20213;-58
2022/08/09 05:22:29;;;;;;;1.60;1.45;;;17.70;99.90;;;;;;5112169;28;20173;-58
2022/08/09 05:24:55;;;;;;;1.38;0.90;;;17.70;99.90;;;;;;5112678;28;20808;-58
2022/08/09 05:27:20;;;;;;;1.40;1.30;;;17.80;99.90;;;;;;5112346;28;20198;-58
2022/08/09 05:29:47;;;;;;;1.15;0.95;;;17.90;99.90;;;;;;5111595;28;20531;-58
2022/08/09 05:32:12;;;;;;;1.40;1.02;;;17.80;99.90;;;;;;5113458;28;20174;-57
2022/08/09 05:34:38;;;;;;;1.20;1.08;;;17.80;99.90;;;;;;5112344;28;20254;-58
2022/08/09 05:37:05;;;;;;;1.35;1.25;;;17.90;99.90;;;;;;5113553;28;20173;-58
2022/08/09 05:39:31;;;;;;;1.30;1.20;;;17.90;99.90;;;;;;5113632;28;20238;-58
2022/08/09 05:41:57;;;;;;;1.30;1.15;;;17.70;99.90;;;;;;5113408;28;20169;-57
2022/08/09 05:44:23;;;;;;;1.10;1.00;;;17.90;99.90;;;;;;5113320;28;20185;-57
2022/08/09 05:46:49;;;;;;;1.45;1.33;;;18.00;99.90;;;;;;5113363;28;20203;-59
2022/08/09 05:49:14;;;;;;;1.20;1.10;;;18.10;99.90;;;;;;5113483;28;20173;-58
2022/08/09 05:51:40;;;;;;;1.55;1.45;;;18.20;99.90;;;;;;5112161;28;20174;-57
2022/08/09 05:54:06;;;;;;;1.48;1.30;;;18.40;99.90;;;;;;5113527;28;20682;-58
2022/08/09 05:56:31;;;;;;;1.27;1.05;;;18.50;99.90;;;;;;5113462;28;20619;-58
2022/08/09 05:59:01;;;;;;;1.40;1.17;;;18.60;99.90;;;;;;5113405;28;20173;-57
2022/08/09 06:01:27;;;;;;;1.13;1.02;;;18.80;99.90;;;;;;5112347;28;20264;-58
2022/08/09 06:03:53;;;;;;;2.17;1.42;;;18.80;99.90;;;;;;5113370;28;20230;-59
2022/08/09 06:06:19;;;;;;;1.30;1.20;;;18.90;99.90;;;;;;5113198;28;20177;-58
2022/08/09 06:08:45;;;;;;;2.22;1.83;;;19.00;99.90;;;;;;5113126;28;20522;-58
2022/08/09 06:11:11;;;;;;;2.45;1.80;;;19.10;99.90;;;;;;5112246;28;20583;-57
2022/08/09 06:13:36;;;;;;;1.48;1.20;;;19.10;99.90;;;;;;5113270;28;20209;-58
2022/08/09 06:16:03;;;;;;;1.83;1.40;;;19.10;99.90;;;;;;5113233;28;20248;-58
2022/08/09 06:18:29;;;;;;;1.80;1.30;;;19.10;99.90;;;;;;5113165;28;20219;-58
2022/08/09 06:20:55;;;;;;;1.83;1.50;;;18.90;99.90;;;;;;5113821;28;20177;-58
2022/08/09 06:23:22;;;;;;;1.70;1.23;;;18.90;99.90;;;;;;5116964;28;20220;-57
2022/08/09 06:25:47;;;;;;;2.00;1.40;;;19.00;99.90;;;;;;5117021;28;20631;-57
2022/08/09 06:28:13;;;;;;;1.85;1.63;;;19.20;99.90;;;;;;5116730;28;20191;-59
2022/08/09 06:30:39;;;;;;;3.13;1.83;;;19.20;99.90;;;;;;5115566;28;20260;-58
2022/08/09 06:33:04;;;;;;;1.60;1.30;;;19.40;99.90;;;;;;5116618;28;20173;-58
2022/08/09 06:35:30;;;;;;;1.48;1.35;;;19.50;99.90;;;;;;5115357;28;20690;-58
2022/08/09 06:37:56;;;;;;;1.95;1.50;;;19.90;99.90;;;;;;5115595;28;20170;-57
2022/08/09 06:40:22;;;;;;;2.10;1.85;;;19.90;99.90;;;;;;5116635;28;20177;-59
2022/08/09 06:42:48;;;;;;;1.42;1.33;;;20.00;99.90;;;;;;5115064;28;20189;-58
2022/08/09 06:45:13;;;;;;;2.42;1.80;;;20.20;99.90;;;;;;5116875;28;20174;-59
2022/08/09 06:47:39;;;;;;;1.75;1.40;;;20.20;99.90;;;;;;5116368;28;20177;-58
2022/08/09 06:50:05;;;;;;;1.45;1.27;;;20.10;99.90;;;;;;5115098;28;20507;-59
2022/08/09 06:52:31;;;;;;;1.75;1.50;;;20.10;99.90;;;;;;5116392;28;20266;-59
2022/08/09 06:54:57;;;;;;;1.83;1.50;;;20.20;99.90;;;;;;5115146;28;20229;-58
2022/08/09 06:57:22;;;;;;;1.85;1.50;;;20.20;99.90;;;;;;5116285;28;20586;-58
2022/08/09 06:59:48;;;;;;;1.70;1.60;;;20.20;99.90;;;;;;5115032;28;20246;-58
2022/08/09 07:02:14;;;;;;;2.55;1.67;;;20.30;99.90;;;;;;5116092;28;20178;-58
2022/08/09 07:04:39;;;;;;;2.08;1.50;;;20.60;99.90;;;;;;5115985;28;20261;-60
2022/08/09 07:07:05;;;;;;;1.75;1.33;;;20.80;99.90;;;;;;5115069;28;20178;-58
2022/08/09 07:09:31;;;;;;;2.25;1.67;;;21.10;99.90;;;;;;5115959;28;20181;-58
2022/08/09 07:11:57;;;;;;;1.45;1.35;;;21.20;99.90;;;;;;5115871;28;20618;-57
2022/08/09 07:14:23;;;;;;;1.65;1.48;;;21.40;99.90;;;;;;5115743;28;20212;-58
2022/08/09 07:16:48;;;;;;;1.30;1.20;;;21.50;99.90;;;;;;5115778;28;20230;-58
2022/08/09 07:19:15;;;;;;;2.90;1.08;;;21.70;99.90;;;;;;5114525;28;20177;-58
2022/08/09 07:21:42;;;;;;;1.02;0.93;;;21.70;99.90;;;;;;5115891;28;20177;-58
2022/08/09 07:24:08;;;;;;;1.60;1.08;;;21.80;99.90;;;;;;5115787;28;20572;-58
2022/08/09 07:26:33;;;;;;;2.38;1.00;;;21.90;99.90;;;;;;5114526;28;20169;-58
2022/08/09 07:29:00;;;;;;;1.27;1.00;;;22.10;99.90;;;;;;5115666;28;20173;-58
2022/08/09 07:31:25;;;;;;;1.45;1.25;;;22.00;99.70;;;;;;5115545;28;20173;-58
2022/08/09 07:33:51;;;;;;;2.40;0.90;;;22.10;99.50;;;;;;5114306;28;20207;-58
2022/08/09 07:36:17;;;;;;;2.15;1.08;;;22.20;99.70;;;;;;5115557;28;20205;-58
2022/08/09 07:38:42;;;;;;;1.35;1.00;;;22.20;99.10;;;;;;5115524;28;20566;-58
2022/08/09 07:41:08;;;;;;;1.00;0.90;;;22.20;99.50;;;;;;5115305;28;20211;-57
2022/08/09 07:43:34;;;;;;;3.97;1.00;;;22.30;99.30;;;;;;5115387;28;20186;-58
2022/08/09 07:46:00;;;;;;;1.00;0.90;;;22.20;98.80;;;;;;5115143;28;20191;-60
2022/08/09 07:48:25;;;;;;;2.20;0.98;;;22.50;98.20;;;;;;5113888;28;20622;-58
2022/08/09 07:50:51;;;;;;;1.00;0.88;;;22.40;98.50;;;;;;5115132;28;20169;-58
2022/08/09 07:53:17;;;;;;;1.30;1.20;;;22.70;98.60;;;;;;5115204;28;20170;-58
2022/08/09 07:55:42;;;;;;;0.80;0.80;;;22.80;98.50;;;;;;5114042;28;20553;-58
2022/08/09 07:58:08;;;;;;;1.00;0.80;;;23.00;97.80;;;;;;5115009;28;20226;-58
2022/08/09 08:00:34;;;;;;;0.73;0.70;;;23.00;97.30;;;;;;5114990;28;20178;-58
2022/08/09 08:03:01;;;;;;;0.88;0.88;;;22.90;97.10;;;;;;5114806;28;20181;-58
2022/08/09 08:05:27;;;;;;;1.08;0.73;;;23.20;96.90;;;;;;5115051;28;20169;-58
2022/08/09 08:07:56;;;;;;;0.70;0.70;;;23.10;97.10;;;;;;5114954;28;20195;-58
2022/08/09 08:10:22;;;;;;;1.90;0.60;;;23.20;96.70;;;;;;5114798;28;20177;-58
2022/08/09 08:12:48;;;;;;;0.63;0.60;;;23.30;96.80;;;;;;5114503;28;20170;-58
2022/08/09 08:15:16;;;;;;;1.10;0.60;;;23.40;96.80;;;;;;5114608;28;20216;-58
2022/08/09 08:17:42;;;;;;;0.50;0.50;;;23.70;96.40;;;;;;5113565;28;20173;-58
2022/08/09 08:20:09;;;;;;;0.55;0.50;;;23.50;96.00;;;;;;5114646;27;20203;-58
2022/08/09 08:22:34;;;;;;;0.90;0.90;;;23.60;96.30;;;;;;5114708;28;20197;-58
2022/08/09 08:25:00;;;;;;;0.68;0.60;;;23.60;96.10;;;;;;5114526;28;20214;-58
2022/08/09 08:27:26;;;;;;;0.50;0.50;;;23.60;96.20;;;;;;5114519;28;20555;-58
2022/08/09 08:29:53;;;;;;;1.02;0.82;;;23.60;96.00;;;;;;5114447;28;20688;-58
2022/08/09 08:32:21;;;;;;;0.50;0.50;;;23.80;95.80;;;;;;5114522;28;20260;-57
2022/08/09 08:34:47;;;;;;;0.63;0.47;;;24.00;95.70;;;;;;5114132;28;20204;-57
2022/08/09 08:37:12;;;;;;;0.50;0.50;;;23.90;95.00;;;;;;5114431;28;20177;-58
2022/08/09 08:39:38;;;;;;;0.80;0.60;;;23.90;95.30;;;;;;5114167;28;20694;-58
2022/08/09 08:42:05;;;;;;;0.50;0.50;;;24.00;95.10;;;;;;5114258;28;20248;-58
2022/08/09 08:44:35;;;;;;;0.60;0.40;;;24.20;94.90;;;;;;5113561;28;20639;-57
2022/08/09 08:47:01;;;;;;;0.73;0.55;;;24.40;94.30;;;;;;5114329;28;20177;-58
2022/08/09 08:49:31;;;;;;;0.98;0.60;;;24.60;94.10;;;;;;5114119;28;20173;-58
2022/08/09 08:51:58;;;;;;;1.25;0.50;;;24.90;94.10;;;;;;5113147;28;20186;-57
2022/08/09 08:54:24;;;;;;;0.47;0.47;;;25.00;93.60;;;;;;5112822;28;20204;-58
2022/08/09 08:56:51;;;;;;;0.40;0.40;;;25.00;93.50;;;;;;5114063;28;20181;-58
2022/08/09 08:59:16;;;;;;;0.60;0.60;;;25.00;93.40;;;;;;5113802;28;20177;-57
2022/08/09 09:01:43;;;;;;;1.98;0.50;;;24.50;93.50;;;;;;5096259;28;20582;-58
2022/08/09 09:04:11;;;;;;;0.70;0.70;;;24.40;93.90;;;;;;5113817;28;20687;-57
2022/08/09 09:06:41;;;;;;;1.33;0.60;;;24.50;93.50;;;;;;5114001;28;20169;-57
2022/08/09 09:09:10;;;;;;;0.60;0.60;;;24.70;93.60;;;;;;5112652;28;20205;-58
2022/08/09 09:11:36;;;;;;;0.40;0.40;;;24.70;93.20;;;;;;5113680;28;20626;-57
2022/08/09 09:14:22;;;;;;;0.45;0.40;;;24.70;92.70;;;;;;5113795;28;20567;-58
2022/08/09 09:16:47;;;;;;;0.50;0.50;;;24.30;93.20;;;;;;5113970;28;20162;-58
2022/08/09 09:19:13;;;;;;;0.52;0.35;;;24.40;93.30;;;;;;5113681;28;20184;-57
2022/08/09 09:21:58;;;;;;;0.50;0.50;;;24.50;92.90;;;;;;5113634;28;20177;-58
2022/08/09 09:24:29;;;;;;;0.47;0.40;;;24.90;91.80;;;;;;5113640;28;20210;-57
2022/08/09 09:26:57;;;;;;;0.65;0.43;;;24.90;92.30;;;;;;5113738;28;20188;-57
2022/08/09 09:29:31;;;;;;;0.20;0.20;;;25.30;92.10;;;;;;5113740;28;20179;-57
2022/08/09 09:31:57;;;;;;;0.50;0.50;;;25.30;92.30;;;;;;5113581;28;20165;-57
2022/08/09 09:34:23;;;;;;;1.63;0.40;;;25.30;92.20;;;;;;5113518;28;20551;-57
2022/08/09 09:36:49;;;;;;;1.75;0.50;;;25.20;91.90;;;;;;5112338;28;20178;-57
2022/08/09 09:39:17;;;;;;;0.40;0.40;;;24.90;92.00;;;;;;5112562;28;20173;-58
2022/08/09 09:41:43;;;;;;;1.00;0.68;;;25.00;91.60;;;;;;5113635;28;20176;-57
2022/08/09 09:44:09;;;;;;;0.50;0.50;;;25.40;91.80;;;;;;5113392;28;20185;-57
2022/08/09 09:46:40;;;;;;;0.50;0.50;;;25.80;91.40;;;;;;5113739;28;20184;-57
2022/08/09 09:49:11;;;;;;;0.40;0.40;;;25.70;90.90;;;;;;5113415;28;20218;-58
2022/08/09 09:51:38;;;;;;;0.60;0.40;;;25.90;91.00;;;;;;5113644;28;20652;-58
2022/08/09 09:54:17;;;;;;;1.25;0.60;;;26.00;91.10;;;;;;5113442;28;20201;-58
2022/08/09 09:56:44;;;;;;;0.50;0.50;;;26.10;90.30;;;;;;5115542;28;20161;-58
2022/08/09 09:59:11;;;;;;;0.40;0.35;;;25.90;90.90;;;;;;5117313;28;20197;-57
2022/08/09 10:01:39;;;;;;;1.48;0.38;;;26.00;91.00;;;;;;5117177;28;20177;-58
2022/08/09 10:04:18;;;;;;;0.80;0.55;;;26.10;90.10;;;;;;5117660;28;20264;-57
2022/08/09 10:06:46;;;;;;;0.40;0.40;;;25.90;89.40;;;;;;5117172;28;20573;-57
2022/08/09 10:09:13;;;;;;;0.63;0.50;;;25.80;90.10;;;;;;5117354;28;20580;-57
2022/08/09 10:11:39;;;;;;;0.30;0.30;;;25.80;90.50;;;;;;5117163;28;20234;-58
2022/08/09 10:14:05;;;;;;;0.30;0.30;;;25.80;90.50;;;;;;5117028;28;20209;-59
2022/08/09 10:16:34;;;;;;;0.95;0.52;;;26.00;90.00;;;;;;5116960;28;20169;-58
2022/08/09 10:19:03;;;;;;;0.88;0.45;;;26.20;90.00;;;;;;5117102;28;20187;-58
2022/08/09 10:21:28;;;;;;;0.32;0.32;;;26.40;90.30;;;;;;5117290;28;20173;-58
2022/08/09 10:23:56;;;;;;;0.30;0.30;;;26.30;89.10;;;;;;5116896;28;20177;-58
2022/08/09 10:26:23;;;;;;;0.57;0.57;;;26.00;90.10;;;;;;5116736;28;20269;-57
2022/08/09 10:28:49;;;;;;;0.80;0.40;;;26.00;90.30;;;;;;5115607;28;20635;-58
2022/08/09 10:31:16;;;;;;;0.50;0.40;;;26.10;89.60;;;;;;5116725;28;20200;-58
2022/08/09 10:33:42;;;;;;;0.68;0.68;;;26.30;89.60;;;;;;5115624;28;20197;-57
2022/08/09 10:36:09;;;;;;;0.50;0.47;;;26.40;90.20;;;;;;5116782;28;20170;-57
2022/08/09 10:38:36;;;;;;;1.05;0.75;;;26.70;89.60;;;;;;5116656;28;20234;-58
2022/08/09 10:41:04;;;;;;;0.50;0.50;;;26.80;89.10;;;;;;5116613;28;20172;-58
2022/08/09 10:43:30;;;;;;;0.50;0.50;;;26.70;89.20;;;;;;5115327;28;20188;-58
2022/08/09 10:46:12;;;;;;;0.65;0.50;;;26.50;90.10;;;;;;5115330;28;20663;-57
2022/08/09 10:48:55;;;;;;;0.45;0.45;;;26.50;89.90;;;;;;5116615;28;20173;-58
2022/08/09 10:51:42;;;;;;;0.45;0.45;;;26.40;89.50;;;;;;5116422;28;20218;-57
2022/08/09 10:54:12;;;;;;;0.70;0.60;;;26.60;89.50;;;;;;5116579;28;20196;-58
2022/08/09 10:56:39;;;;;;;0.70;0.50;;;26.70;89.70;;;;;;5116458;28;20538;-58
2022/08/09 10:59:24;;;;;;;0.60;0.60;;;26.90;89.30;;;;;;5115133;28;20253;-58
2022/08/09 11:01:51;;;;;;;1.10;0.50;;;26.50;89.20;;;;;;5116101;28;20173;-58
2022/08/09 11:04:22;;;;;;;0.50;0.43;;;26.60;89.80;;;;;;5116162;28;20180;-58
2022/08/09 11:07:00;;;;;;;0.40;0.35;;;26.80;89.70;;;;;;5115917;28;20169;-58
2022/08/09 11:09:37;;;;;;;0.40;0.40;;;27.20;88.70;;;;;;5116188;28;20165;-58
2022/08/09 11:12:15;;;;;;;0.73;0.60;;;26.80;89.90;;;;;;5115999;28;20165;-58
2022/08/09 11:15:03;;;;;;;0.60;0.60;;;26.70;88.60;;;;;;5115610;28;20213;-57
2022/08/09 11:17:29;;;;;;;1.27;0.50;;;26.80;89.30;;;;;;5115851;28;20180;-57
2022/08/09 11:20:00;;;;;;;0.93;0.50;;;26.70;90.00;;;;;;5115944;28;20157;-58
2022/08/09 11:22:41;;;;;;;0.50;0.50;;;26.90;90.20;;;;;;5115819;28;20169;-58
2022/08/09 11:25:11;;;;;;;0.52;0.52;;;27.00;89.60;;;;;;5116173;28;20177;-58
2022/08/09 11:27:46;;;;;;;0.70;0.70;;;27.10;89.50;;;;;;5115797;28;20173;-58
2022/08/09 11:30:21;;;;;;;1.23;0.45;;;27.10;89.40;;;;;;5115747;28;20180;-58
2022/08/09 11:32:49;;;;;;;1.00;0.50;;;27.10;89.60;;;;;;5115594;28;20237;-57
2022/08/09 11:35:26;;;;;;;0.40;0.40;;;27.30;89.40;;;;;;5115535;28;20193;-58
2022/08/09 11:37:56;;;;;;;0.93;0.60;;;27.60;89.50;;;;;;5115605;28;20173;-58
2022/08/09 11:40:22;;;;;;;0.50;0.50;;;27.40;88.20;;;;;;5115554;28;20183;-57
2022/08/09 11:42:51;;;;;;;0.40;0.40;;;27.10;88.30;;;;;;5115454;28;20177;-57
2022/08/09 11:45:39;;;;;;;0.70;0.60;;;27.20;88.90;;;;;;5115314;28;20173;-58
2022/08/09 11:48:10;;;;;;;0.95;0.50;;;27.40;88.10;;;;;;5115071;28;20209;-57
2022/08/09 11:50:55;;;;;;;0.80;0.80;;;27.60;87.40;;;;;;5115387;28;20169;-58
2022/08/09 11:53:23;;;;;;;1.10;0.63;;;27.70;87.40;;;;;;5115125;28;20634;-58
2022/08/09 11:55:54;;;;;;;0.73;0.40;;;27.40;87.20;;;;;;5115145;28;20588;-58
2022/08/09 11:58:19;;;;;;;0.70;0.68;;;27.10;88.00;;;;;;5096760;28;20170;-58
2022/08/09 12:01:07;;;;;;;0.75;0.70;;;27.10;88.80;;;;;;5113905;28;20184;-57
2022/08/09 12:03:33;;;;;;;1.17;0.70;;;27.20;88.40;;;;;;5115049;28;20706;-57
2022/08/09 12:06:07;;;;;;;0.60;0.50;;;27.50;88.60;;;;;;5115251;28;20173;-57
2022/08/09 12:08:33;;;;;;;0.45;0.45;;;27.30;87.30;;;;;;5114827;28;20202;-58
2022/08/09 12:10:59;;;;;;;0.75;0.60;;;27.10;86.90;;;;;;5114693;28;20169;-58
2022/08/09 12:13:37;;;;;;;1.20;0.52;;;27.20;86.30;;;;;;5114727;28;20181;-57
2022/08/09 12:16:06;;;;;;;0.30;0.30;;;27.30;86.70;;;;;;5114531;28;20577;-58
2022/08/09 12:18:33;;;;;;;0.52;0.52;;;27.00;86.30;;;;;;5114059;28;20170;-57
2022/08/09 12:21:01;;;;;;;0.40;0.35;;;27.10;87.00;;;;;;5114596;28;20250;-58
2022/08/09 12:23:27;;;;;;;0.40;0.40;;;27.40;86.10;;;;;;5114527;28;20582;-58
2022/08/09 12:25:54;;;;;;;0.70;0.40;;;27.60;86.50;;;;;;5113480;28;20177;-58
2022/08/09 12:28:24;;;;;;;0.70;0.57;;;27.70;85.60;;;;;;5113372;28;20175;-58
2022/08/09 12:30:51;;;;;;;0.40;0.40;;;27.80;85.50;;;;;;5114625;28;20281;-58
2022/08/09 12:33:19;;;;;;;0.40;0.40;;;27.60;85.30;;;;;;5114475;28;20205;-58
2022/08/09 12:35:45;;;;;;;0.82;0.52;;;27.70;85.40;;;;;;5114327;28;20165;-57
2022/08/09 12:38:22;;;;;;;0.68;0.63;;;27.60;85.40;;;;;;5114537;28;20333;-57
2022/08/09 12:40:50;;;;;;;0.57;0.40;;;27.90;85.70;;;;;;5114434;28;20645;-58
2022/08/09 12:43:21;;;;;;;0.52;0.52;;;27.80;84.50;;;;;;5114277;28;20192;-58
2022/08/09 12:45:47;;;;;;;0.43;0.35;;;27.80;85.10;;;;;;5114442;28;20252;-57
2022/08/09 12:48:14;;;;;;;0.38;0.38;;;28.00;84.10;;;;;;5114133;28;20165;-58
2022/08/09 12:50:41;;;;;;;0.50;0.50;;;28.00;83.90;;;;;;5113962;28;20256;-57
2022/08/09 12:53:26;;;;;;;0.30;0.30;;;27.90;83.50;;;;;;5114032;28;20172;-57